sensor_id;sensor_type;location;lat;lon;timestamp;pressure;altitude;pressure_sealevel;temperature;humidity
78354;BME280;67629;46.040;18.232;2024-02-04T00:00:24;100314.69;;;5.41;90.84
78354;BME280;67629;46.040;18.232;2024-02-04T00:00:55;100307.41;;;5.41;91.08
78354;BME280;67629;46.040;18.232;2024-02-04T00:01:26;100297.84;;;5.45;91.18
78354;BME280;67629;46.040;18.232;2024-02-04T00:01:56;100301.63;;;5.44;91.04
78354;BME280;67629;46.040;18.232;2024-02-04T00:02:27;100294.97;;;5.47;90.52
78354;BME280;67629;46.040;18.232;2024-02-04T00:02:58;100297.03;;;5.45;90.98
78354;BME280;67629;46.040;18.232;2024-02-04T00:03:29;100306.19;;;5.44;90.97
78354;BME280;67629;46.040;18.232;2024-02-04T00:03:59;100295.97;;;5.46;90.57
78354;BME280;67629;46.040;18.232;2024-02-04T00:04:30;100304.50;;;5.43;90.43
78354;BME280;67629;46.040;18.232;2024-02-04T00:05:03;100299.44;;;5.33;91.30
78354;BME280;67629;46.040;18.232;2024-02-04T00:05:33;100299.03;;;5.36;90.76
78354;BME280;67629;46.040;18.232;2024-02-04T00:06:04;100297.28;;;5.29;90.86
78354;BME280;67629;46.040;18.232;2024-02-04T00:06:35;100290.00;;;5.29;90.85
78354;BME280;67629;46.040;18.232;2024-02-04T00:07:06;100295.88;;;5.33;90.97
78354;BME280;67629;46.040;18.232;2024-02-04T00:07:37;100292.97;;;5.34;90.76
78354;BME280;67629;46.040;18.232;2024-02-04T00:08:08;100289.22;;;5.35;91.26
78354;BME280;67629;46.040;18.232;2024-02-04T00:08:39;100285.50;;;5.36;91.25
78354;BME280;67629;46.040;18.232;2024-02-04T00:09:10;100283.59;;;5.37;91.13
78354;BME280;67629;46.040;18.232;2024-02-04T00:09:40;100290.47;;;5.33;91.03
78354;BME280;67629;46.040;18.232;2024-02-04T00:10:11;100286.06;;;5.32;91.54
78354;BME280;67629;46.040;18.232;2024-02-04T00:10:42;100293.41;;;5.38;91.68
78354;BME280;67629;46.040;18.232;2024-02-04T00:11:13;100290.06;;;5.36;90.72
78354;BME280;67629;46.040;18.232;2024-02-04T00:12:17;100288.91;;;5.24;91.29
78354;BME280;67629;46.040;18.232;2024-02-04T00:12:48;100282.84;;;5.22;91.63
78354;BME280;67629;46.040;18.232;2024-02-04T00:13:19;100291.81;;;5.22;91.72
78354;BME280;67629;46.040;18.232;2024-02-04T00:13:49;100297.03;;;5.24;92.06
78354;BME280;67629;46.040;18.232;2024-02-04T00:14:20;100289.34;;;5.27;92.28
78354;BME280;67629;46.040;18.232;2024-02-04T00:14:51;100285.88;;;5.33;91.66
78354;BME280;67629;46.040;18.232;2024-02-04T00:15:22;100288.00;;;5.38;91.41
78354;BME280;67629;46.040;18.232;2024-02-04T00:16:31;100280.31;;;5.41;91.37
78354;BME280;67629;46.040;18.232;2024-02-04T00:17:01;100287.47;;;5.49;91.04
78354;BME280;67629;46.040;18.232;2024-02-04T00:17:32;100290.84;;;5.51;91.10
78354;BME280;67629;46.040;18.232;2024-02-04T00:18:04;100285.00;;;5.54;91.47
78354;BME280;67629;46.040;18.232;2024-02-04T00:18:35;100291.47;;;5.53;91.00
78354;BME280;67629;46.040;18.232;2024-02-04T00:19:05;100292.97;;;5.55;91.22
78354;BME280;67629;46.040;18.232;2024-02-04T00:19:36;100275.00;;;5.54;91.47
78354;BME280;67629;46.040;18.232;2024-02-04T00:20:07;100284.03;;;5.61;91.01
78354;BME280;67629;46.040;18.232;2024-02-04T00:20:38;100276.75;;;5.62;90.86
78354;BME280;67629;46.040;18.232;2024-02-04T00:21:09;100277.59;;;5.62;90.97
78354;BME280;67629;46.040;18.232;2024-02-04T00:21:40;100280.34;;;5.69;90.25
78354;BME280;67629;46.040;18.232;2024-02-04T00:22:10;100284.09;;;5.68;90.76
78354;BME280;67629;46.040;18.232;2024-02-04T00:22:41;100288.09;;;5.72;90.57
78354;BME280;67629;46.040;18.232;2024-02-04T00:23:11;100282.28;;;5.75;90.46
78354;BME280;67629;46.040;18.232;2024-02-04T00:23:42;100285.63;;;5.77;90.03
78354;BME280;67629;46.040;18.232;2024-02-04T00:24:13;100284.59;;;5.78;90.36
78354;BME280;67629;46.040;18.232;2024-02-04T00:24:43;100280.66;;;5.81;89.85
78354;BME280;67629;46.040;18.232;2024-02-04T00:25:14;100283.19;;;5.82;89.95
78354;BME280;67629;46.040;18.232;2024-02-04T00:25:45;100291.31;;;5.82;89.79
78354;BME280;67629;46.040;18.232;2024-02-04T00:26:15;100287.38;;;5.85;89.54
78354;BME280;67629;46.040;18.232;2024-02-04T00:26:46;100284.00;;;5.83;90.37
78354;BME280;67629;46.040;18.232;2024-02-04T00:27:17;100292.22;;;5.89;89.81
78354;BME280;67629;46.040;18.232;2024-02-04T00:27:48;100291.19;;;5.90;89.89
78354;BME280;67629;46.040;18.232;2024-02-04T00:28:18;100279.06;;;5.86;89.78
78354;BME280;67629;46.040;18.232;2024-02-04T00:28:53;100295.38;;;5.93;89.23
78354;BME280;67629;46.040;18.232;2024-02-04T00:29:24;100286.69;;;5.83;89.25
78354;BME280;67629;46.040;18.232;2024-02-04T00:29:54;100284.66;;;5.85;89.70
78354;BME280;67629;46.040;18.232;2024-02-04T00:30:25;100296.53;;;5.84;89.73
78354;BME280;67629;46.040;18.232;2024-02-04T00:30:56;100296.38;;;5.85;89.99
78354;BME280;67629;46.040;18.232;2024-02-04T00:31:29;100298.69;;;5.88;89.93
78354;BME280;67629;46.040;18.232;2024-02-04T00:31:59;100292.84;;;5.91;89.35
78354;BME280;67629;46.040;18.232;2024-02-04T00:32:30;100292.44;;;5.94;89.59
78354;BME280;67629;46.040;18.232;2024-02-04T00:33:01;100293.97;;;5.97;89.13
78354;BME280;67629;46.040;18.232;2024-02-04T00:33:33;100292.91;;;5.98;89.42
78354;BME280;67629;46.040;18.232;2024-02-04T00:34:04;100287.53;;;6.04;88.89
78354;BME280;67629;46.040;18.232;2024-02-04T00:34:51;100282.06;;;5.98;88.96
78354;BME280;67629;46.040;18.232;2024-02-04T00:35:21;100283.13;;;6.03;88.80
78354;BME280;67629;46.040;18.232;2024-02-04T00:35:52;100287.97;;;6.08;88.73
78354;BME280;67629;46.040;18.232;2024-02-04T00:36:23;100294.25;;;6.08;89.27
78354;BME280;67629;46.040;18.232;2024-02-04T00:36:53;100283.41;;;6.08;88.93
78354;BME280;67629;46.040;18.232;2024-02-04T00:37:24;100284.47;;;6.14;88.25
78354;BME280;67629;46.040;18.232;2024-02-04T00:37:55;100291.56;;;6.15;88.35
78354;BME280;67629;46.040;18.232;2024-02-04T00:38:26;100287.19;;;6.14;88.20
78354;BME280;67629;46.040;18.232;2024-02-04T00:38:56;100290.72;;;6.14;88.48
78354;BME280;67629;46.040;18.232;2024-02-04T00:39:27;100296.41;;;6.19;88.54
78354;BME280;67629;46.040;18.232;2024-02-04T00:39:57;100289.63;;;6.09;88.09
78354;BME280;67629;46.040;18.232;2024-02-04T00:40:28;100293.78;;;6.05;88.96
78354;BME280;67629;46.040;18.232;2024-02-04T00:40:59;100291.94;;;6.12;88.42
78354;BME280;67629;46.040;18.232;2024-02-04T00:41:29;100298.84;;;6.14;88.84
78354;BME280;67629;46.040;18.232;2024-02-04T00:42:00;100290.69;;;6.08;88.48
78354;BME280;67629;46.040;18.232;2024-02-04T00:42:31;100291.53;;;6.08;88.55
78354;BME280;67629;46.040;18.232;2024-02-04T00:43:01;100292.16;;;6.10;88.91
78354;BME280;67629;46.040;18.232;2024-02-04T00:43:32;100297.19;;;6.13;88.39
78354;BME280;67629;46.040;18.232;2024-02-04T00:44:03;100292.00;;;6.18;88.12
78354;BME280;67629;46.040;18.232;2024-02-04T00:44:33;100297.63;;;6.17;88.01
78354;BME280;67629;46.040;18.232;2024-02-04T00:45:04;100297.19;;;6.13;88.02
78354;BME280;67629;46.040;18.232;2024-02-04T00:45:35;100299.69;;;6.15;88.18
78354;BME280;67629;46.040;18.232;2024-02-04T00:46:05;100296.53;;;6.11;88.42
78354;BME280;67629;46.040;18.232;2024-02-04T00:46:37;100297.59;;;6.10;88.63
78354;BME280;67629;46.040;18.232;2024-02-04T00:47:08;100298.22;;;6.12;88.39
78354;BME280;67629;46.040;18.232;2024-02-04T00:47:38;100294.47;;;6.13;88.25
78354;BME280;67629;46.040;18.232;2024-02-04T00:48:09;100286.97;;;6.15;88.32
78354;BME280;67629;46.040;18.232;2024-02-04T00:48:40;100302.25;;;6.23;88.30
78354;BME280;67629;46.040;18.232;2024-02-04T00:49:13;100288.69;;;6.23;87.79
78354;BME280;67629;46.040;18.232;2024-02-04T00:49:44;100295.84;;;6.30;87.62
78354;BME280;67629;46.040;18.232;2024-02-04T00:50:14;100287.69;;;6.30;87.54
78354;BME280;67629;46.040;18.232;2024-02-04T00:50:45;100286.41;;;6.26;87.40
78354;BME280;67629;46.040;18.232;2024-02-04T00:51:16;100289.56;;;6.30;87.85
78354;BME280;67629;46.040;18.232;2024-02-04T00:51:47;100291.88;;;6.33;87.86
78354;BME280;67629;46.040;18.232;2024-02-04T00:52:34;100293.34;;;6.36;87.70
78354;BME280;67629;46.040;18.232;2024-02-04T00:53:05;100285.22;;;6.36;87.23
78354;BME280;67629;46.040;18.232;2024-02-04T00:53:36;100292.72;;;6.34;87.04
78354;BME280;67629;46.040;18.232;2024-02-04T00:54:06;100288.97;;;6.35;87.38
78354;BME280;67629;46.040;18.232;2024-02-04T00:54:37;100291.50;;;6.36;87.13
78354;BME280;67629;46.040;18.232;2024-02-04T00:55:08;100293.59;;;6.41;86.77
78354;BME280;67629;46.040;18.232;2024-02-04T00:55:39;100293.19;;;6.44;86.76
78354;BME280;67629;46.040;18.232;2024-02-04T00:56:09;100289.44;;;6.45;87.01
78354;BME280;67629;46.040;18.232;2024-02-04T00:56:41;100289.03;;;6.48;86.59
78354;BME280;67629;46.040;18.232;2024-02-04T00:57:12;100289.88;;;6.48;86.75
78354;BME280;67629;46.040;18.232;2024-02-04T00:57:42;100292.19;;;6.51;86.88
78354;BME280;67629;46.040;18.232;2024-02-04T00:58:13;100283.00;;;6.52;86.64
78354;BME280;67629;46.040;18.232;2024-02-04T00:58:44;100281.13;;;6.53;86.40
78354;BME280;67629;46.040;18.232;2024-02-04T00:59:15;100285.53;;;6.54;86.13
78354;BME280;67629;46.040;18.232;2024-02-04T00:59:45;100279.66;;;6.50;86.82
78354;BME280;67629;46.040;18.232;2024-02-04T01:00:16;100283.44;;;6.56;86.51
78354;BME280;67629;46.040;18.232;2024-02-04T01:00:47;100280.31;;;6.59;86.28
78354;BME280;67629;46.040;18.232;2024-02-04T01:01:19;100284.50;;;6.61;86.58
78354;BME280;67629;46.040;18.232;2024-02-04T01:01:50;100281.41;;;6.64;86.12
78354;BME280;67629;46.040;18.232;2024-02-04T01:02:21;100279.31;;;6.66;86.27
78354;BME280;67629;46.040;18.232;2024-02-04T01:02:51;100287.25;;;6.68;85.98
78354;BME280;67629;46.040;18.232;2024-02-04T01:03:22;100285.13;;;6.63;85.58
78354;BME280;67629;46.040;18.232;2024-02-04T01:03:53;100286.59;;;6.59;86.26
78354;BME280;67629;46.040;18.232;2024-02-04T01:04:23;100284.06;;;6.58;86.26
78354;BME280;67629;46.040;18.232;2024-02-04T01:04:54;100278.41;;;6.53;86.31
78354;BME280;67629;46.040;18.232;2024-02-04T01:05:25;100282.16;;;6.52;86.03
78354;BME280;67629;46.040;18.232;2024-02-04T01:05:55;100287.84;;;6.57;86.21
78354;BME280;67629;46.040;18.232;2024-02-04T01:06:26;100286.16;;;6.56;86.09
78354;BME280;67629;46.040;18.232;2024-02-04T01:06:58;100287.63;;;6.58;86.41
78354;BME280;67629;46.040;18.232;2024-02-04T01:07:29;100288.91;;;6.62;86.00
78354;BME280;67629;46.040;18.232;2024-02-04T01:07:59;100285.13;;;6.63;85.97
78354;BME280;67629;46.040;18.232;2024-02-04T01:08:31;100282.41;;;6.63;85.62
78354;BME280;67629;46.040;18.232;2024-02-04T01:09:01;100281.19;;;6.66;86.23
78354;BME280;67629;46.040;18.232;2024-02-04T01:09:32;100282.41;;;6.63;85.63
78354;BME280;67629;46.040;18.232;2024-02-04T01:10:03;100287.84;;;6.63;85.76
78354;BME280;67629;46.040;18.232;2024-02-04T01:10:34;100286.19;;;6.69;85.91
78354;BME280;67629;46.040;18.232;2024-02-04T01:11:05;100277.03;;;6.70;86.00
78354;BME280;67629;46.040;18.232;2024-02-04T01:11:36;100286.00;;;6.70;85.26
78354;BME280;67629;46.040;18.232;2024-02-04T01:12:07;100271.59;;;6.70;85.63
78354;BME280;67629;46.040;18.232;2024-02-04T01:12:38;100267.38;;;6.61;85.89
78354;BME280;67629;46.040;18.232;2024-02-04T01:13:09;100272.81;;;6.61;86.13
78354;BME280;67629;46.040;18.232;2024-02-04T01:13:39;100269.06;;;6.62;85.94
78354;BME280;67629;46.040;18.232;2024-02-04T01:14:10;100279.94;;;6.62;85.71
78354;BME280;67629;46.040;18.232;2024-02-04T01:14:41;100264.47;;;6.62;85.94
78354;BME280;67629;46.040;18.232;2024-02-04T01:15:11;100268.66;;;6.65;85.68
78354;BME280;67629;46.040;18.232;2024-02-04T01:15:42;100265.75;;;6.73;85.46
78354;BME280;67629;46.040;18.232;2024-02-04T01:16:13;100265.53;;;6.74;85.76
78354;BME280;67629;46.040;18.232;2024-02-04T01:16:44;100272.66;;;6.75;85.52
78354;BME280;67629;46.040;18.232;2024-02-04T01:17:14;100273.28;;;6.77;85.49
78354;BME280;67629;46.040;18.232;2024-02-04T01:17:45;100268.28;;;6.81;85.55
78354;BME280;67629;46.040;18.232;2024-02-04T01:18:16;100273.72;;;6.81;84.86
78354;BME280;67629;46.040;18.232;2024-02-04T01:18:46;100280.84;;;6.82;85.62
78354;BME280;67629;46.040;18.232;2024-02-04T01:19:17;100264.97;;;6.79;85.17
78354;BME280;67629;46.040;18.232;2024-02-04T01:19:48;100260.56;;;6.78;85.46
78354;BME280;67629;46.040;18.232;2024-02-04T01:20:18;100265.97;;;6.78;85.14
78354;BME280;67629;46.040;18.232;2024-02-04T01:20:49;100268.09;;;6.82;84.89
78354;BME280;67629;46.040;18.232;2024-02-04T01:21:20;100268.72;;;6.84;85.31
78354;BME280;67629;46.040;18.232;2024-02-04T01:21:50;100269.16;;;6.88;84.61
78354;BME280;67629;46.040;18.232;2024-02-04T01:22:21;100262.06;;;6.87;84.54
78354;BME280;67629;46.040;18.232;2024-02-04T01:22:56;100264.56;;;6.88;84.78
78354;BME280;67629;46.040;18.232;2024-02-04T01:23:27;100266.22;;;6.89;84.34
78354;BME280;67629;46.040;18.232;2024-02-04T01:24:29;100262.47;;;6.84;84.64
78354;BME280;67629;46.040;18.232;2024-02-04T01:25:01;100265.78;;;6.86;84.55
78354;BME280;67629;46.040;18.232;2024-02-04T01:25:32;100263.72;;;6.81;84.52
78354;BME280;67629;46.040;18.232;2024-02-04T01:26:03;100260.59;;;6.84;85.10
78354;BME280;67629;46.040;18.232;2024-02-04T01:26:33;100266.44;;;6.88;84.59
78354;BME280;67629;46.040;18.232;2024-02-04T01:27:04;100257.91;;;6.91;84.84
78354;BME280;67629;46.040;18.232;2024-02-04T01:27:35;100256.66;;;6.94;84.21
78354;BME280;67629;46.040;18.232;2024-02-04T01:28:05;100266.69;;;7.00;84.42
78354;BME280;67629;46.040;18.232;2024-02-04T01:28:36;100255.00;;;6.99;84.55
78354;BME280;67629;46.040;18.232;2024-02-04T01:29:07;100259.81;;;6.97;84.43
78354;BME280;67629;46.040;18.232;2024-02-04T01:29:37;100262.06;;;6.94;84.48
78354;BME280;67629;46.040;18.232;2024-02-04T01:30:08;100255.81;;;6.93;84.52
78354;BME280;67629;46.040;18.232;2024-02-04T01:30:39;100260.41;;;6.99;84.00
78354;BME280;67629;46.040;18.232;2024-02-04T01:31:09;100261.03;;;7.01;84.01
78354;BME280;67629;46.040;18.232;2024-02-04T01:31:40;100261.03;;;7.01;83.69
78354;BME280;67629;46.040;18.232;2024-02-04T01:32:11;100269.22;;;7.08;84.09
78354;BME280;67629;46.040;18.232;2024-02-04T01:32:41;100270.47;;;7.12;84.14
78354;BME280;67629;46.040;18.232;2024-02-04T01:33:12;100265.88;;;7.12;83.42
78354;BME280;67629;46.040;18.232;2024-02-04T01:33:42;100270.28;;;7.13;83.09
78354;BME280;67629;46.040;18.232;2024-02-04T01:35:28;100265.47;;;7.15;83.28
78354;BME280;67629;46.040;18.232;2024-02-04T01:35:58;100265.06;;;7.18;83.56
78354;BME280;67629;46.040;18.232;2024-02-04T01:36:29;100256.69;;;7.13;83.36
78354;BME280;67629;46.040;18.232;2024-02-04T01:37:00;100258.59;;;7.19;83.31
78354;BME280;67629;46.040;18.232;2024-02-04T01:37:31;100261.06;;;7.21;83.29
78354;BME280;67629;46.040;18.232;2024-02-04T01:38:01;100256.06;;;7.18;83.08
78354;BME280;67629;46.040;18.232;2024-02-04T01:38:32;100260.69;;;7.17;83.24
78354;BME280;67629;46.040;18.232;2024-02-04T01:39:02;100263.41;;;7.17;83.20
78354;BME280;67629;46.040;18.232;2024-02-04T01:39:33;100262.16;;;7.20;83.01
78354;BME280;67629;46.040;18.232;2024-02-04T01:40:04;100258.59;;;7.26;82.85
78354;BME280;67629;46.040;18.232;2024-02-04T01:40:35;100259.22;;;7.28;83.25
78354;BME280;67629;46.040;18.232;2024-02-04T01:41:06;100262.56;;;7.30;83.00
78354;BME280;67629;46.040;18.232;2024-02-04T01:41:37;100266.56;;;7.34;82.48
78354;BME280;67629;46.040;18.232;2024-02-04T01:42:08;100258.00;;;7.37;82.28
78354;BME280;67629;46.040;18.232;2024-02-04T01:42:38;100255.69;;;7.34;82.16
78354;BME280;67629;46.040;18.232;2024-02-04T01:43:09;100259.84;;;7.36;82.58
78354;BME280;67629;46.040;18.232;2024-02-04T01:43:40;100254.44;;;7.36;82.45
78354;BME280;67629;46.040;18.232;2024-02-04T01:44:11;100261.97;;;7.34;82.09
78354;BME280;67629;46.040;18.232;2024-02-04T01:44:41;100258.41;;;7.34;81.99
78354;BME280;67629;46.040;18.232;2024-02-04T01:45:12;100252.31;;;7.32;82.30
78354;BME280;67629;46.040;18.232;2024-02-04T01:45:43;100254.00;;;7.39;82.52
78354;BME280;67629;46.040;18.232;2024-02-04T01:47:24;100252.13;;;7.40;82.17
78354;BME280;67629;46.040;18.232;2024-02-04T01:49:30;100243.56;;;7.43;82.06
78354;BME280;67629;46.040;18.232;2024-02-04T01:51:44;100240.22;;;7.47;81.93
78354;BME280;67629;46.040;18.232;2024-02-04T01:52:49;100250.44;;;7.39;82.61
78354;BME280;67629;46.040;18.232;2024-02-04T01:54:25;100246.91;;;7.52;81.81
78354;BME280;67629;46.040;18.232;2024-02-04T01:57:33;100257.16;;;7.63;81.37
78354;BME280;67629;46.040;18.232;2024-02-04T01:58:06;100256.75;;;7.66;81.43
78354;BME280;67629;46.040;18.232;2024-02-04T01:58:37;100255.06;;;7.65;81.19
78354;BME280;67629;46.040;18.232;2024-02-04T01:59:07;100252.34;;;7.65;81.16
78354;BME280;67629;46.040;18.232;2024-02-04T01:59:39;100252.56;;;7.63;81.53
78354;BME280;67629;46.040;18.232;2024-02-04T02:00:10;100250.47;;;7.59;81.67
78354;BME280;67629;46.040;18.232;2024-02-04T02:00:42;100250.47;;;7.59;81.53
78354;BME280;67629;46.040;18.232;2024-02-04T02:01:13;100251.91;;;7.61;81.45
78354;BME280;67629;46.040;18.232;2024-02-04T02:01:44;100253.81;;;7.67;81.70
78354;BME280;67629;46.040;18.232;2024-02-04T02:02:15;100249.22;;;7.68;81.06
78354;BME280;67629;46.040;18.232;2024-02-04T02:02:46;100246.69;;;7.73;80.94
78354;BME280;67629;46.040;18.232;2024-02-04T02:03:18;100250.06;;;7.75;80.65
78354;BME280;67629;46.040;18.232;2024-02-04T02:03:50;100247.53;;;7.73;80.80
78354;BME280;67629;46.040;18.232;2024-02-04T02:04:21;100243.34;;;7.71;80.75
78354;BME280;67629;46.040;18.232;2024-02-04T02:04:52;100244.63;;;7.75;80.68
78354;BME280;67629;46.040;18.232;2024-02-04T02:05:23;100243.97;;;7.73;80.56
78354;BME280;67629;46.040;18.232;2024-02-04T02:05:54;100239.59;;;7.65;80.87
78354;BME280;67629;46.040;18.232;2024-02-04T02:11:41;100243.75;;;7.68;80.19
78354;BME280;67629;46.040;18.232;2024-02-04T02:12:25;100245.44;;;7.69;80.72
78354;BME280;67629;46.040;18.232;2024-02-04T02:13:07;100246.88;;;7.78;80.98
78354;BME280;67629;46.040;18.232;2024-02-04T02:13:41;100249.19;;;7.81;80.29
78354;BME280;67629;46.040;18.232;2024-02-04T02:14:16;100251.06;;;7.87;80.22
78354;BME280;67629;46.040;18.232;2024-02-04T02:14:56;100244.16;;;7.91;79.82
78354;BME280;67629;46.040;18.232;2024-02-04T02:15:34;100249.19;;;7.94;79.65
78354;BME280;67629;46.040;18.232;2024-02-04T02:16:19;100244.34;;;7.96;79.89
78354;BME280;67629;46.040;18.232;2024-02-04T02:16:52;100252.31;;;7.97;79.68
78354;BME280;67629;46.040;18.232;2024-02-04T02:17:31;100244.97;;;7.98;79.30
78354;BME280;67629;46.040;18.232;2024-02-04T02:20:01;100234.09;;;8.04;79.04
78354;BME280;67629;46.040;18.232;2024-02-04T02:20:41;100233.06;;;8.06;78.82
78354;BME280;67629;46.040;18.232;2024-02-04T02:22:49;100230.94;;;8.08;78.52
78354;BME280;67629;46.040;18.232;2024-02-04T02:23:30;100231.78;;;8.08;78.78
78354;BME280;67629;46.040;18.232;2024-02-04T02:24:16;100233.25;;;8.04;78.54
78354;BME280;67629;46.040;18.232;2024-02-04T02:24:51;100231.97;;;8.07;78.71
78354;BME280;67629;46.040;18.232;2024-02-04T02:25:22;100230.75;;;8.09;78.24
78354;BME280;67629;46.040;18.232;2024-02-04T02:25:55;100226.75;;;8.12;78.45
78354;BME280;67629;46.040;18.232;2024-02-04T02:26:27;100223.63;;;8.15;78.50
78354;BME280;67629;46.040;18.232;2024-02-04T02:26:59;100215.44;;;8.15;78.10
78354;BME280;67629;46.040;18.232;2024-02-04T02:27:30;100213.16;;;8.12;78.30
78354;BME280;67629;46.040;18.232;2024-02-04T02:28:01;100219.03;;;8.09;78.13
78354;BME280;67629;46.040;18.232;2024-02-04T02:28:32;100217.56;;;8.06;78.12
78354;BME280;67629;46.040;18.232;2024-02-04T02:29:03;100217.56;;;8.06;78.50
78354;BME280;67629;46.040;18.232;2024-02-04T02:29:34;100212.13;;;8.06;78.68
78354;BME280;67629;46.040;18.232;2024-02-04T02:30:05;100218.59;;;8.05;78.61
78354;BME280;67629;46.040;18.232;2024-02-04T02:30:36;100215.47;;;8.01;78.47
78354;BME280;67629;46.040;18.232;2024-02-04T02:31:06;100212.13;;;8.06;78.06
78354;BME280;67629;46.040;18.232;2024-02-04T02:31:39;100221.09;;;8.13;78.33
78354;BME280;67629;46.040;18.232;2024-02-04T02:32:11;100213.34;;;8.17;77.99
78354;BME280;67629;46.040;18.232;2024-02-04T02:32:43;100210.19;;;8.20;78.08
78354;BME280;67629;46.040;18.232;2024-02-04T02:33:14;100212.06;;;8.19;77.84
78354;BME280;67629;46.040;18.232;2024-02-04T02:33:45;100216.47;;;8.20;78.16
78354;BME280;67629;46.040;18.232;2024-02-04T02:34:16;100208.94;;;8.22;77.91
78354;BME280;67629;46.040;18.232;2024-02-04T02:34:47;100214.38;;;8.22;77.84
78354;BME280;67629;46.040;18.232;2024-02-04T02:35:19;100222.75;;;8.21;77.65
78354;BME280;67629;46.040;18.232;2024-02-04T02:35:54;100209.78;;;8.23;77.75
78354;BME280;67629;46.040;18.232;2024-02-04T02:36:29;100212.06;;;8.26;77.77
78354;BME280;67629;46.040;18.232;2024-02-04T02:37:21;100208.09;;;8.28;77.30
78354;BME280;67629;46.040;18.232;2024-02-04T02:38:02;100215.22;;;8.29;77.05
78354;BME280;67629;46.040;18.232;2024-02-04T02:40:09;100211.41;;;8.24;77.34
78354;BME280;67629;46.040;18.232;2024-02-04T02:40:45;100221.50;;;8.23;76.82
78354;BME280;67629;46.040;18.232;2024-02-04T02:41:17;100215.03;;;8.18;77.26
78354;BME280;67629;46.040;18.232;2024-02-04T02:41:55;100225.50;;;8.21;77.48
78354;BME280;67629;46.040;18.232;2024-02-04T02:42:28;100226.09;;;8.23;77.51
78354;BME280;67629;46.040;18.232;2024-02-04T02:43:02;100216.88;;;8.24;77.04
78354;BME280;67629;46.040;18.232;2024-02-04T02:43:34;100221.06;;;8.26;76.83
78354;BME280;67629;46.040;18.232;2024-02-04T02:44:21;100217.72;;;8.24;77.34
78354;BME280;67629;46.040;18.232;2024-02-04T02:45:09;100220.66;;;8.23;77.08
78354;BME280;67629;46.040;18.232;2024-02-04T02:46:28;100222.34;;;8.17;77.29
78354;BME280;67629;46.040;18.232;2024-02-04T02:47:02;100226.16;;;7.96;77.75
78354;BME280;67629;46.040;18.232;2024-02-04T02:47:33;100232.66;;;7.76;77.61
78354;BME280;67629;46.040;18.232;2024-02-04T02:48:05;100223.28;;;7.45;78.56
78354;BME280;67629;46.040;18.232;2024-02-04T02:48:38;100219.09;;;7.30;78.02
78354;BME280;67629;46.040;18.232;2024-02-04T02:49:10;100224.94;;;7.33;79.40
78354;BME280;67629;46.040;18.232;2024-02-04T02:49:41;100226.00;;;7.39;79.08
78354;BME280;67629;46.040;18.232;2024-02-04T02:50:12;100227.25;;;7.36;78.93
78354;BME280;67629;46.040;18.232;2024-02-04T02:50:43;100237.50;;;7.28;79.65
78354;BME280;67629;46.040;18.232;2024-02-04T02:51:14;100233.09;;;7.27;79.35
78354;BME280;67629;46.040;18.232;2024-02-04T02:51:44;100228.09;;;7.30;79.53
78354;BME280;67629;46.040;18.232;2024-02-04T02:52:15;100229.94;;;7.30;79.64
78354;BME280;67629;46.040;18.232;2024-02-04T02:52:46;100225.56;;;7.29;79.46
78354;BME280;67629;46.040;18.232;2024-02-04T02:53:16;100237.50;;;7.28;79.63
78354;BME280;67629;46.040;18.232;2024-02-04T02:53:50;100234.16;;;7.26;79.89
78354;BME280;67629;46.040;18.232;2024-02-04T02:54:20;100234.16;;;7.26;80.18
78354;BME280;67629;46.040;18.232;2024-02-04T02:54:51;100231.19;;;7.21;80.23
78354;BME280;67629;46.040;18.232;2024-02-04T02:55:21;100232.88;;;7.15;79.98
78354;BME280;67629;46.040;18.232;2024-02-04T02:55:52;100234.97;;;7.20;80.31
78354;BME280;67629;46.040;18.232;2024-02-04T03:00:27;100234.94;;;6.40;80.65
78354;BME280;67629;46.040;18.232;2024-02-04T03:00:58;100236.75;;;6.26;81.42
78354;BME280;67629;46.040;18.232;2024-02-04T03:01:29;100237.34;;;6.21;81.89
78354;BME280;67629;46.040;18.232;2024-02-04T03:02:00;100233.31;;;6.04;82.20
78354;BME280;67629;46.040;18.232;2024-02-04T03:02:32;100227.25;;;6.09;82.76
78354;BME280;67629;46.040;18.232;2024-02-04T03:03:03;100238.09;;;6.02;82.01
78354;BME280;67629;46.040;18.232;2024-02-04T03:03:33;100226.75;;;5.92;82.63
78354;BME280;67629;46.040;18.232;2024-02-04T03:04:04;100236.19;;;5.96;82.83
78354;BME280;67629;46.040;18.232;2024-02-04T03:04:35;100232.50;;;6.10;83.36
78354;BME280;67629;46.040;18.232;2024-02-04T03:06:02;100235.28;;;6.23;83.66
78354;BME280;67629;46.040;18.232;2024-02-04T03:06:33;100233.41;;;6.24;83.88
78354;BME280;67629;46.040;18.232;2024-02-04T03:07:05;100227.78;;;6.25;84.08
78354;BME280;67629;46.040;18.232;2024-02-04T03:07:36;100233.00;;;6.27;83.83
78354;BME280;67629;46.040;18.232;2024-02-04T03:08:07;100236.34;;;6.22;83.68
78354;BME280;67629;46.040;18.232;2024-02-04T03:08:38;100232.56;;;6.23;84.30
78354;BME280;67629;46.040;18.232;2024-02-04T03:09:08;100231.13;;;6.27;84.30
78354;BME280;67629;46.040;18.232;2024-02-04T03:09:40;100238.66;;;6.32;83.59
78354;BME280;67629;46.040;18.232;2024-02-04T03:10:11;100236.16;;;6.37;84.24
78354;BME280;67629;46.040;18.232;2024-02-04T03:10:41;100242.03;;;6.34;84.18
78354;BME280;67629;46.040;18.232;2024-02-04T03:11:12;100245.38;;;6.36;83.84
78354;BME280;67629;46.040;18.232;2024-02-04T03:11:43;100244.13;;;6.39;83.71
78354;BME280;67629;46.040;18.232;2024-02-04T03:12:13;100249.16;;;6.42;84.02
78354;BME280;67629;46.040;18.232;2024-02-04T03:12:47;100247.06;;;6.44;84.48
78354;BME280;67629;46.040;18.232;2024-02-04T03:13:17;100248.75;;;6.45;84.07
78354;BME280;67629;46.040;18.232;2024-02-04T03:13:49;100254.41;;;6.50;84.45